createdAt,value
2022-12-26T00:17:38.495Z,1080
2022-12-26T00:37:38.523Z,1096
2022-12-26T00:57:38.585Z,1106
2022-12-26T01:17:38.633Z,1108
2022-12-26T01:37:38.673Z,1106
2022-12-26T01:57:38.733Z,1111
2022-12-26T02:17:38.820Z,1114
2022-12-26T02:37:38.867Z,1122
2022-12-26T02:57:38.922Z,1119
2022-12-26T03:37:48.187Z,1110
2022-12-26T03:57:39.089Z,1109
2022-12-26T04:17:39.130Z,1094
2022-12-26T04:37:39.190Z,1111
2022-12-26T04:57:39.445Z,1115
2022-12-26T05:17:39.275Z,1119
2022-12-26T05:37:39.342Z,1101
2022-12-26T05:57:39.393Z,1095
2022-12-26T06:17:39.448Z,1102
2022-12-26T06:37:39.480Z,1087
2022-12-26T06:57:39.534Z,1094
2022-12-26T07:17:39.614Z,1094
2022-12-26T07:37:39.643Z,1095
2022-12-26T07:57:48.409Z,1085
2022-12-26T08:17:39.749Z,1093
2022-12-26T09:17:39.941Z,1078
2022-12-26T09:37:40.006Z,1086
2022-12-26T09:57:40.031Z,1087
2022-12-26T10:17:40.097Z,1087
2022-12-26T10:37:40.169Z,1082
2022-12-26T10:57:40.212Z,1080
2022-12-26T11:17:48.248Z,1080
2022-12-26T11:57:40.355Z,1075
2022-12-26T12:17:40.416Z,1066
2022-12-26T12:37:40.489Z,1071
2022-12-26T12:57:40.544Z,1064
2022-12-26T13:17:40.578Z,1051
2022-12-26T13:37:40.639Z,1046
2022-12-26T13:57:40.685Z,1055
2022-12-26T14:17:48.761Z,1044
2022-12-26T14:37:40.806Z,1060
2022-12-26T14:57:48.877Z,1069
2022-12-26T15:17:40.908Z,1079
2022-12-26T15:37:40.979Z,1076
2022-12-26T15:57:49.026Z,1077
2022-12-26T16:37:41.172Z,1068
2022-12-26T16:57:41.207Z,1066
2022-12-26T17:17:41.279Z,1064
2022-12-26T17:37:41.365Z,1061
2022-12-26T17:57:41.409Z,1065
2022-12-26T18:17:41.477Z,1063
2022-12-26T18:37:41.533Z,1060
2022-12-26T18:57:41.611Z,1061
2022-12-26T19:17:41.669Z,1058
2022-12-26T19:37:41.712Z,1057
2022-12-26T19:57:49.812Z,1057
2022-12-26T20:17:41.843Z,1052
2022-12-26T20:57:41.995Z,1049
2022-12-26T21:17:42.068Z,1051
2022-12-26T21:37:42.129Z,1051
2022-12-26T22:17:42.245Z,1046
2022-12-26T22:37:42.331Z,1038
2022-12-26T23:17:42.446Z,1043
2022-12-26T23:37:42.542Z,1039
2022-12-26T23:57:42.605Z,1047
